Time;durP1;ratioP1;P1;durP2;ratioP2;P2;SDS_P1;SDS_P2;PMS_P1;PMS_P2;Temp;Humidity;BMP_temperature;BMP_pressure;BME280_temperature;BME280_humidity;BME280_pressure;Samples;Min_cycle;Max_cycle;Signal;HPM_P1;HPM_P2
2022/02/01 00:02:19;;;;;;;14.23;1.35;;;4.40;99.90;;;;;;5034176;28;20458;-33
2022/02/01 00:15:23;;;;;;;16.67;2.65;;;4.40;99.90;;;;;;5033644;28;20414;-32
2022/02/01 00:33:12;;;;;;;9.35;0.90;;;4.50;99.90;;;;;;5049420;28;20079;-32
2022/02/01 00:36:51;;;;;;;5.20;1.25;;;4.60;99.90;;;;;;5053356;28;20087;-37
2022/02/01 00:39:18;;;;;;;9.77;1.50;;;4.60;99.90;;;;;;5053377;28;20087;-31
2022/02/01 00:41:51;;;;;;;6.75;1.10;;;4.60;99.90;;;;;;5052213;28;20108;-35
2022/02/01 00:44:17;;;;;;;9.23;1.40;;;4.60;99.90;;;;;;5037914;28;20029;-34
2022/02/01 00:46:43;;;;;;;6.93;0.80;;;4.60;99.90;;;;;;5035400;28;20121;-31
2022/02/01 00:49:08;;;;;;;14.98;1.67;;;4.70;99.90;;;;;;5036951;28;20025;-36
2022/02/01 00:51:34;;;;;;;4.25;1.17;;;4.80;99.90;;;;;;5033018;28;20025;-38
2022/02/01 00:54:00;;;;;;;15.38;1.15;;;4.70;99.90;;;;;;5032980;28;20026;-34
2022/02/01 00:56:26;;;;;;;3.97;0.63;;;4.70;99.90;;;;;;5037482;28;20025;-33
2022/02/01 00:58:52;;;;;;;10.38;0.52;;;4.80;99.90;;;;;;5033072;28;20512;-35
2022/02/01 01:01:17;;;;;;;5.53;0.30;;;4.90;99.90;;;;;;5038669;28;20026;-35
2022/02/01 01:03:47;;;;;;;3.60;0.90;;;4.90;99.90;;;;;;5045220;28;20017;-29
2022/02/01 01:06:13;;;;;;;6.03;0.40;;;5.00;99.90;;;;;;5035177;28;20510;-39
2022/02/01 01:08:40;;;;;;;2.92;0.95;;;5.00;99.90;;;;;;5036151;28;20086;-36
2022/02/01 01:11:06;;;;;;;1.17;0.45;;;5.10;99.90;;;;;;5048957;28;20048;-34
2022/02/01 01:52:43;;;;;;;6.32;0.70;;;5.10;99.90;;;;;;5032320;28;20026;-34
2022/02/01 01:54:26;;;;;;;5.47;0.45;;;5.30;99.90;;;;;;5052442;28;20063;-34
2022/02/01 01:56:55;;;;;;;7.22;0.40;;;5.30;99.90;;;;;;5040113;28;20025;-36
2022/02/01 01:59:23;;;;;;;3.00;0.30;;;5.30;99.90;;;;;;5032319;28;20072;-36
2022/02/01 02:01:48;;;;;;;5.68;0.90;;;5.30;99.90;;;;;;5047737;28;20048;-32
2022/02/01 02:04:14;;;;;;;4.13;0.70;;;5.40;99.90;;;;;;5052139;28;20079;-35
2022/02/01 02:06:40;;;;;;;11.02;1.23;;;5.30;99.90;;;;;;5038425;28;20410;-32
2022/02/01 02:09:09;;;;;;;7.28;0.68;;;5.30;99.90;;;;;;5040349;28;20048;-40
2022/02/01 02:16:44;;;;;;;5.22;1.35;;;5.20;99.90;;;;;;5038916;28;20033;-34
2022/02/01 02:19:11;;;;;;;14.40;1.35;;;5.20;99.90;;;;;;5045579;28;20104;-34
2022/02/01 02:21:38;;;;;;;14.60;1.90;;;5.30;99.90;;;;;;5036057;28;20028;-37
2022/02/01 02:24:05;;;;;;;9.63;0.93;;;5.30;99.90;;;;;;5036106;28;20025;-33
2022/02/01 02:26:32;;;;;;;9.85;0.80;;;5.30;99.90;;;;;;5034785;28;20041;-35
2022/02/01 02:28:59;;;;;;;6.45;0.75;;;5.30;99.90;;;;;;5035698;28;20432;-37
2022/02/01 02:31:25;;;;;;;9.75;1.90;;;5.40;99.90;;;;;;5040474;28;20021;-39
2022/02/01 02:34:05;;;;;;;6.03;1.42;;;5.40;99.90;;;;;;5055460;28;20025;-36
2022/02/01 02:36:33;;;;;;;12.93;1.13;;;5.30;99.90;;;;;;5042144;28;20030;-42
2022/02/01 02:39:09;;;;;;;24.75;1.92;;;5.30;99.90;;;;;;5035476;28;20048;-34
2022/02/01 02:41:48;;;;;;;5.10;0.98;;;5.30;99.90;;;;;;5035663;28;20490;-37
2022/02/01 02:46:58;;;;;;;11.05;1.38;;;5.30;99.90;;;;;;5035487;28;20048;-34
2022/02/01 02:49:24;;;;;;;13.68;1.35;;;5.30;99.90;;;;;;5048312;28;20026;-35
2022/02/01 02:51:50;;;;;;;9.35;1.65;;;5.30;99.90;;;;;;5055449;28;20019;-31
2022/02/01 02:54:24;;;;;;;11.05;1.65;;;5.30;99.90;;;;;;5055062;28;20025;-35
2022/02/01 02:56:58;;;;;;;8.10;0.98;;;5.20;99.90;;;;;;5035307;28;20113;-39
2022/02/01 02:59:25;;;;;;;4.72;0.98;;;5.30;99.90;;;;;;5035331;28;20025;-36
2022/02/01 03:01:52;;;;;;;12.95;0.90;;;5.30;99.90;;;;;;5035029;28;20032;-40
2022/02/01 03:04:19;;;;;;;11.77;2.45;;;5.40;99.90;;;;;;5034839;28;20021;-32
2022/02/01 03:06:46;;;;;;;10.90;1.23;;;5.40;99.90;;;;;;5034486;28;20524;-36
2022/02/01 03:09:13;;;;;;;9.18;1.25;;;5.40;99.90;;;;;;5034821;28;20482;-34
2022/02/01 03:11:39;;;;;;;12.95;1.33;;;5.40;99.90;;;;;;5034819;28;20100;-33
2022/02/01 03:14:24;;;;;;;14.45;1.85;;;5.50;99.90;;;;;;5035168;28;20443;-39
2022/02/01 03:22:05;;;;;;;7.03;0.77;;;5.50;99.90;;;;;;5034812;28;20045;-35
2022/02/01 03:24:31;;;;;;;11.15;2.25;;;5.60;99.90;;;;;;5034201;28;20053;-32
2022/02/01 03:26:57;;;;;;;11.15;1.45;;;5.60;99.90;;;;;;5054644;28;20425;-32
2022/02/01 03:29:23;;;;;;;5.60;0.90;;;5.60;99.90;;;;;;5054385;28;20071;-44
2022/02/01 03:31:49;;;;;;;2.50;1.00;;;5.60;99.90;;;;;;5054585;28;20021;-37
2022/02/01 03:34:15;;;;;;;6.72;0.88;;;5.60;99.90;;;;;;5053237;28;20039;-41
2022/02/01 03:36:41;;;;;;;4.65;1.23;;;5.60;99.90;;;;;;5035538;28;20401;-38
2022/02/01 03:39:06;;;;;;;15.98;1.02;;;5.60;99.90;;;;;;5034459;28;20025;-34
2022/02/01 03:41:32;;;;;;;5.57;0.80;;;5.60;99.90;;;;;;5034796;28;20430;-31
2022/02/01 03:44:00;;;;;;;6.90;1.33;;;5.60;99.90;;;;;;5044571;28;20032;-35
2022/02/01 03:46:26;;;;;;;5.80;1.20;;;5.60;99.90;;;;;;5054198;28;20032;-36
2022/02/01 03:48:51;;;;;;;11.30;1.20;;;5.70;99.90;;;;;;5045374;28;20402;-37
2022/02/01 03:51:17;;;;;;;7.28;0.57;;;5.70;99.90;;;;;;5034156;28;20072;-36
2022/02/01 03:53:43;;;;;;;9.32;1.02;;;5.70;99.90;;;;;;5034065;28;20032;-37
2022/02/01 03:56:09;;;;;;;6.03;1.40;;;5.70;99.90;;;;;;5034104;28;20079;-38
2022/02/01 03:58:35;;;;;;;2.78;0.90;;;5.70;99.90;;;;;;5044320;28;20029;-38
2022/02/01 04:01:01;;;;;;;7.25;1.20;;;5.70;99.90;;;;;;5053418;28;20013;-38
2022/02/01 04:03:26;;;;;;;6.90;1.48;;;5.80;99.90;;;;;;5033882;28;20030;-34
2022/02/01 04:05:52;;;;;;;10.65;1.00;;;5.80;99.90;;;;;;5034069;28;20378;-37
2022/02/01 04:08:19;;;;;;;11.30;1.40;;;5.80;99.90;;;;;;5033571;28;20057;-32
2022/02/01 04:10:47;;;;;;;5.57;0.63;;;5.70;99.90;;;;;;5034051;28;20029;-35
2022/02/01 04:13:13;;;;;;;2.22;0.75;;;5.70;99.90;;;;;;5050591;28;20044;-39
2022/02/01 04:15:39;;;;;;;8.32;1.73;;;5.70;99.90;;;;;;5053558;28;20017;-39
2022/02/01 04:18:06;;;;;;;11.30;2.28;;;5.70;99.90;;;;;;5053637;28;20036;-35
2022/02/01 04:20:32;;;;;;;5.55;0.88;;;5.70;99.90;;;;;;5052522;28;20029;-33
2022/02/01 04:22:58;;;;;;;6.75;1.42;;;5.70;99.90;;;;;;5037208;28;20017;-34
2022/02/01 04:25:23;;;;;;;8.15;1.52;;;5.70;99.90;;;;;;5033424;28;20063;-37
2022/02/01 04:27:49;;;;;;;9.02;1.20;;;5.70;99.90;;;;;;5033397;28;20021;-33
2022/02/01 04:30:17;;;;;;;6.93;1.23;;;5.80;99.90;;;;;;5033286;28;20025;-36
2022/02/01 04:32:54;;;;;;;3.33;0.80;;;5.80;99.90;;;;;;5033107;28;20474;-31
2022/02/01 04:35:22;;;;;;;7.60;1.42;;;5.80;99.90;;;;;;5033313;28;20030;-32
2022/02/01 04:37:50;;;;;;;7.18;1.48;;;5.90;99.90;;;;;;5033005;28;20033;-38
2022/02/01 04:40:17;;;;;;;18.00;1.77;;;5.90;99.90;;;;;;5033411;28;20071;-35
2022/02/01 04:42:43;;;;;;;10.73;1.63;;;5.90;99.90;;;;;;5032964;28;20033;-34
2022/02/01 04:45:17;;;;;;;5.43;1.08;;;5.90;99.90;;;;;;5032875;28;20648;-36
2022/02/01 04:47:45;;;;;;;7.95;1.30;;;5.90;99.90;;;;;;5043898;28;20025;-33
2022/02/01 04:50:14;;;;;;;9.45;1.42;;;5.90;99.90;;;;;;5053202;28;20399;-37
2022/02/01 04:52:43;;;;;;;7.22;1.13;;;5.90;99.90;;;;;;5053234;28;20393;-36
2022/02/01 04:55:10;;;;;;;18.98;2.25;;;5.90;99.90;;;;;;5050799;28;20507;-32
2022/02/01 04:57:40;;;;;;;4.18;1.00;;;5.90;99.90;;;;;;5052727;28;20179;-38
2022/02/01 05:00:07;;;;;;;5.32;1.40;;;6.00;99.90;;;;;;5053125;28;20378;-40
2022/02/01 05:02:33;;;;;;;7.60;1.52;;;6.00;99.90;;;;;;5052620;28;20102;-39
2022/02/01 05:04:58;;;;;;;5.65;1.67;;;6.00;99.90;;;;;;5052067;28;20482;-33
2022/02/01 05:07:24;;;;;;;7.97;1.90;;;6.00;99.90;;;;;;5032541;28;20050;-39
2022/02/01 05:09:51;;;;;;;4.22;1.45;;;6.00;99.90;;;;;;5032929;28;20037;-37
2022/02/01 05:12:17;;;;;;;10.20;1.95;;;5.90;99.90;;;;;;5032640;28;20101;-44
2022/02/01 05:14:43;;;;;;;18.52;1.70;;;5.90;99.90;;;;;;5032638;28;20049;-36
2022/02/01 05:17:09;;;;;;;6.63;1.70;;;5.90;99.90;;;;;;5032487;28;20045;-32
2022/02/01 05:22:08;;;;;;;6.93;1.52;;;5.80;99.90;;;;;;5036935;28;20107;-33
2022/02/01 05:24:37;;;;;;;11.52;2.15;;;5.80;99.90;;;;;;5052301;28;20032;-35
2022/02/01 05:27:05;;;;;;;11.15;1.50;;;5.80;99.90;;;;;;5047482;28;20505;-33
2022/02/01 05:29:31;;;;;;;15.40;2.30;;;5.70;99.90;;;;;;5032821;28;20017;-35
2022/02/01 05:31:58;;;;;;;9.27;1.63;;;5.70;99.90;;;;;;5032416;28;20060;-34
2022/02/01 05:34:24;;;;;;;5.68;1.67;;;5.70;99.90;;;;;;5032507;28;20029;-36
2022/02/01 05:36:50;;;;;;;9.65;1.60;;;5.70;99.90;;;;;;5044622;28;20021;-30
2022/02/01 05:39:22;;;;;;;13.90;2.20;;;5.70;99.90;;;;;;5052402;28;20066;-31
2022/02/01 05:41:51;;;;;;;16.35;1.92;;;5.80;99.90;;;;;;5052732;28;20044;-35
2022/02/01 05:44:16;;;;;;;15.82;2.35;;;5.80;99.90;;;;;;5052510;28;20021;-37
2022/02/01 05:46:42;;;;;;;10.32;1.63;;;5.80;99.90;;;;;;5041478;28;20504;-35
2022/02/01 05:49:08;;;;;;;25.58;2.78;;;5.80;99.90;;;;;;5055025;28;20496;-35
2022/02/01 05:51:34;;;;;;;16.35;2.42;;;5.80;99.90;;;;;;5056306;28;20465;-37
2022/02/01 05:54:01;;;;;;;6.53;1.80;;;5.80;99.90;;;;;;5056198;28;20021;-42
2022/02/01 05:56:27;;;;;;;16.30;2.50;;;5.80;99.90;;;;;;5045976;28;20393;-37
2022/02/01 05:58:53;;;;;;;10.75;3.67;;;5.80;99.90;;;;;;5036082;28;20022;-33
2022/02/01 06:01:20;;;;;;;23.00;2.58;;;5.90;99.90;;;;;;5036185;28;20021;-31
2022/02/01 06:03:47;;;;;;;18.23;2.38;;;5.90;99.90;;;;;;5042685;28;20376;-32
2022/02/01 06:06:13;;;;;;;30.17;3.47;;;5.90;99.90;;;;;;5046826;28;20031;-33
2022/02/01 06:08:38;;;;;;;8.45;2.17;;;5.90;99.90;;;;;;5036047;28;20029;-31
2022/02/01 06:11:04;;;;;;;13.27;3.45;;;5.90;99.90;;;;;;5036290;28;20060;-36
2022/02/01 06:13:29;;;;;;;17.80;3.40;;;5.90;99.90;;;;;;5035892;28;20068;-36
2022/02/01 06:15:55;;;;;;;12.40;3.92;;;5.90;99.90;;;;;;5035875;28;20029;-37
2022/02/01 06:18:21;;;;;;;14.75;3.63;;;5.80;99.90;;;;;;5035716;28;20036;-34
2022/02/01 06:20:47;;;;;;;24.45;3.65;;;5.80;99.90;;;;;;5035735;28;20025;-33
2022/02/01 06:23:17;;;;;;;17.50;3.45;;;5.90;99.90;;;;;;5035723;28;20053;-32
2022/02/01 06:25:50;;;;;;;18.63;2.95;;;5.90;99.90;;;;;;5035747;28;20347;-35
2022/02/01 06:28:24;;;;;;;14.38;3.40;;;5.90;99.90;;;;;;5041869;28;20021;-33
2022/02/01 06:30:51;;;;;;;20.23;3.50;;;6.00;99.90;;;;;;5047093;28;20025;-34
2022/02/01 06:33:18;;;;;;;16.08;3.75;;;6.00;99.90;;;;;;5054222;28;20037;-35
2022/02/01 06:35:44;;;;;;;15.40;4.32;;;6.00;99.90;;;;;;5035724;28;20227;-31
2022/02/01 06:38:11;;;;;;;17.90;3.65;;;6.00;99.90;;;;;;5035403;28;20026;-34
2022/02/01 06:40:37;;;;;;;13.45;4.53;;;6.10;99.90;;;;;;5039101;28;20021;-34
2022/02/01 06:43:03;;;;;;;15.55;4.28;;;6.10;99.90;;;;;;5055167;28;20029;-34
2022/02/01 06:45:29;;;;;;;14.95;4.20;;;6.10;99.90;;;;;;5049478;28;20470;-31
2022/02/01 06:47:56;;;;;;;16.67;4.53;;;6.10;99.90;;;;;;5053378;28;20485;-33
2022/02/01 06:50:22;;;;;;;13.13;3.80;;;6.10;99.90;;;;;;5055063;28;20021;-34
2022/02/01 06:52:56;;;;;;;18.02;4.63;;;6.10;99.90;;;;;;5035722;28;20467;-39
2022/02/01 06:55:33;;;;;;;26.63;4.85;;;6.10;99.90;;;;;;5054528;28;20020;-31
2022/02/01 06:58:00;;;;;;;12.23;4.40;;;6.10;99.90;;;;;;5036077;28;20048;-35
2022/02/01 07:00:26;;;;;;;16.67;5.17;;;6.00;99.90;;;;;;5046576;28;20024;-40
2022/02/01 07:02:51;;;;;;;11.20;4.07;;;6.10;99.90;;;;;;5054784;28;20021;-32
2022/02/01 07:05:17;;;;;;;14.70;4.55;;;6.00;99.90;;;;;;5071139;28;20017;-35
2022/02/01 07:07:42;;;;;;;13.82;5.10;;;6.10;99.90;;;;;;5059436;28;20103;-36
2022/02/01 07:10:08;;;;;;;18.65;5.28;;;6.10;99.90;;;;;;5053329;28;20478;-34
2022/02/01 07:12:37;;;;;;;17.40;5.95;;;6.10;99.90;;;;;;5054584;28;20068;-33
2022/02/01 07:15:03;;;;;;;20.42;5.22;;;6.10;99.90;;;;;;5037348;28;20025;-35
2022/02/01 07:17:29;;;;;;;21.15;5.82;;;6.10;99.90;;;;;;5034266;28;20040;-43
2022/02/01 07:19:54;;;;;;;23.40;5.68;;;6.10;99.90;;;;;;5037136;28;20494;-32
2022/02/01 07:22:20;;;;;;;14.00;5.15;;;6.10;99.90;;;;;;5041484;28;20100;-31
2022/02/01 07:24:59;;;;;;;25.92;6.43;;;6.20;99.90;;;;;;5034505;28;20431;-35
2022/02/01 07:27:42;;;;;;;22.00;6.55;;;6.30;99.90;;;;;;5035807;28;20533;-31
2022/02/01 07:30:11;;;;;;;19.95;5.93;;;6.30;99.90;;;;;;5033583;28;20033;-38
2022/02/01 07:32:37;;;;;;;20.10;6.53;;;6.30;99.90;;;;;;5042057;28;20482;-31
2022/02/01 07:35:04;;;;;;;20.38;6.18;;;6.30;99.90;;;;;;5034323;28;20500;-31
2022/02/01 07:37:30;;;;;;;17.65;8.57;;;6.30;99.90;;;;;;5044351;28;20380;-34
2022/02/01 07:39:56;;;;;;;25.33;7.30;;;6.30;99.90;;;;;;5035854;28;20024;-36
2022/02/01 07:42:21;;;;;;;21.65;7.22;;;6.40;99.90;;;;;;5039264;28;20538;-33
2022/02/01 07:44:47;;;;;;;14.82;5.80;;;6.40;99.90;;;;;;5054397;28;20473;-39
2022/02/01 07:47:20;;;;;;;19.40;6.22;;;6.50;99.90;;;;;;5042831;28;20029;-34
2022/02/01 07:49:46;;;;;;;17.90;7.07;;;6.40;99.90;;;;;;5038241;28;20087;-34
2022/02/01 07:52:12;;;;;;;21.35;6.90;;;6.40;99.90;;;;;;5042465;28;20080;-32
2022/02/01 07:54:37;;;;;;;19.85;7.57;;;6.40;99.90;;;;;;5053939;28;20055;-37
2022/02/01 07:57:03;;;;;;;21.35;7.03;;;6.50;99.90;;;;;;5053819;28;20103;-37
2022/02/01 07:59:29;;;;;;;27.58;7.65;;;6.60;99.90;;;;;;5053774;28;20495;-35
2022/02/01 08:01:54;;;;;;;20.58;7.25;;;6.60;99.90;;;;;;5053796;28;20036;-31
2022/02/01 08:04:20;;;;;;;15.68;7.13;;;6.60;99.90;;;;;;5050711;28;20017;-32
2022/02/01 08:06:46;;;;;;;18.77;6.88;;;6.60;99.90;;;;;;5053261;28;20041;-33
2022/02/01 08:09:24;;;;;;;8.60;6.00;;;6.70;99.90;;;;;;5053524;28;20374;-33
2022/02/01 08:11:49;;;;;;;;;;;6.70;99.90;;;;;;5053778;28;20025;-33
2022/02/01 08:17:08;;;;;;;14.50;6.15;;;6.70;99.90;;;;;;5053467;28;20104;-30
2022/02/01 08:25:16;;;;;;;10.25;6.22;;;6.90;99.90;;;;;;5045903;28;20032;-31
2022/02/01 08:27:43;;;;;;;9.50;5.30;;;6.90;99.90;;;;;;5036704;28;20051;-32
2022/02/01 08:30:10;;;;;;;8.20;4.70;;;7.00;99.90;;;;;;5041795;28;20036;-35
2022/02/01 08:32:37;;;;;;;11.80;5.13;;;7.00;99.90;;;;;;5048002;28;20033;-31
2022/02/01 08:35:04;;;;;;;5.07;4.13;;;7.00;99.90;;;;;;5044691;28;20068;-30
2022/02/01 08:37:29;;;;;;;7.32;3.90;;;7.00;99.90;;;;;;5033188;28;20022;-32
2022/02/01 08:39:55;;;;;;;5.35;3.92;;;7.00;99.90;;;;;;5044777;28;20033;-33
2022/02/01 08:42:22;;;;;;;10.55;3.50;;;7.00;99.90;;;;;;5033322;28;20397;-34
2022/02/01 08:44:48;;;;;;;3.58;2.80;;;7.00;99.90;;;;;;5047637;28;20033;-30
2022/02/01 08:47:15;;;;;;;7.50;3.88;;;7.00;99.90;;;;;;5045996;28;20030;-33
2022/02/01 08:49:42;;;;;;;4.82;3.25;;;7.10;99.90;;;;;;5035557;28;20022;-30
2022/02/01 08:52:12;;;;;;;6.50;3.83;;;7.10;99.90;;;;;;5032973;28;20030;-30
2022/02/01 08:54:39;;;;;;;7.63;3.53;;;7.10;99.90;;;;;;5033120;28;20179;-35
2022/02/01 08:57:21;;;;;;;3.95;3.55;;;7.10;99.90;;;;;;5032785;28;20029;-37
2022/02/01 08:59:52;;;;;;;6.57;3.65;;;7.20;99.90;;;;;;5033093;28;20024;-33
2022/02/01 09:02:23;;;;;;;9.30;3.33;;;7.20;99.90;;;;;;5032971;28;20535;-38
2022/02/01 09:04:49;;;;;;;6.07;3.20;;;7.30;99.90;;;;;;5042663;28;20378;-32
2022/02/01 09:07:18;;;;;;;3.90;3.28;;;7.30;99.90;;;;;;5052468;28;20056;-32
2022/02/01 09:09:44;;;;;;;7.13;3.05;;;7.30;99.90;;;;;;5052836;28;20021;-33
2022/02/01 09:12:10;;;;;;;2.78;2.50;;;7.30;99.90;;;;;;5036090;28;20108;-34
2022/02/01 09:14:36;;;;;;;3.85;2.72;;;7.30;99.90;;;;;;5046401;28;20083;-31
2022/02/01 09:17:03;;;;;;;9.00;2.53;;;7.30;99.90;;;;;;5043227;28;20440;-35
2022/02/01 09:19:32;;;;;;;6.60;3.10;;;7.40;99.90;;;;;;5033149;28;20028;-35
2022/02/01 09:21:58;;;;;;;5.80;2.10;;;7.50;99.90;;;;;;5032509;28;20021;-40
2022/02/01 09:24:24;;;;;;;6.18;2.38;;;7.50;99.90;;;;;;5049451;28;20078;-36
2022/02/01 09:26:50;;;;;;;12.38;3.53;;;7.50;99.90;;;;;;5050713;28;20025;-29
2022/02/01 09:29:19;;;;;;;9.88;2.17;;;7.50;99.90;;;;;;5052391;28;20048;-32
2022/02/01 09:31:46;;;;;;;4.13;2.42;;;7.50;99.90;;;;;;5049026;28;20091;-32
2022/02/01 09:34:12;;;;;;;3.08;1.90;;;7.50;99.90;;;;;;5052548;28;20025;-31
2022/02/01 09:36:37;;;;;;;2.58;2.15;;;7.50;99.90;;;;;;5050293;28;20028;-30
2022/02/01 09:39:05;;;;;;;4.90;2.38;;;7.50;99.90;;;;;;5052291;28;20055;-31
2022/02/01 09:41:33;;;;;;;3.85;1.90;;;7.50;99.90;;;;;;5039881;28;20021;-37
2022/02/01 09:43:59;;;;;;;3.42;2.30;;;7.50;99.90;;;;;;5032635;28;20044;-31
2022/02/01 09:46:25;;;;;;;3.75;2.08;;;7.50;99.90;;;;;;5049548;28;20036;-33
2022/02/01 09:48:51;;;;;;;4.30;2.38;;;7.50;99.90;;;;;;5033041;28;20135;-37
2022/02/01 09:51:17;;;;;;;5.72;2.55;;;7.50;99.90;;;;;;5033417;28;20049;-35
2022/02/01 09:53:42;;;;;;;5.57;2.65;;;7.50;99.90;;;;;;5037227;28;20370;-34
2022/02/01 09:56:09;;;;;;;3.83;3.25;;;7.50;99.90;;;;;;5050558;28;20025;-35
2022/02/01 09:58:37;;;;;;;4.72;3.05;;;7.60;99.90;;;;;;5051118;28;20029;-33
2022/02/01 10:01:28;;;;;;;9.80;3.33;;;7.60;99.90;;;;;;5045591;28;20402;-34
2022/02/01 10:04:23;;;;;;;8.95;3.92;;;7.60;99.90;;;;;;5032840;28;20025;-31
2022/02/01 10:06:49;;;;;;;12.75;3.60;;;7.60;99.90;;;;;;5041601;28;20132;-39
2022/02/01 10:09:15;;;;;;;7.07;4.00;;;7.60;99.90;;;;;;5040917;28;20112;-39
2022/02/01 10:11:44;;;;;;;14.52;4.82;;;7.60;99.90;;;;;;5032162;28;20033;-35
2022/02/01 10:14:15;;;;;;;7.95;3.95;;;7.70;99.90;;;;;;5032234;28;20029;-30
2022/02/01 10:16:42;;;;;;;6.72;3.88;;;7.60;99.90;;;;;;5032387;28;20525;-30
2022/02/01 10:19:13;;;;;;;13.88;4.90;;;7.70;99.90;;;;;;5039107;28;20358;-31
2022/02/01 10:22:01;;;;;;;7.07;3.47;;;7.70;99.90;;;;;;5035511;28;20029;-35
2022/02/01 10:24:31;;;;;;;11.27;3.67;;;7.80;99.90;;;;;;5037012;28;20021;-35
2022/02/01 10:27:10;;;;;;;12.13;3.67;;;7.80;99.90;;;;;;5031746;28;20033;-35
2022/02/01 10:29:39;;;;;;;15.30;4.97;;;7.80;99.90;;;;;;5033236;28;20021;-31
2022/02/01 10:32:27;;;;;;;6.45;4.07;;;7.90;99.90;;;;;;5039258;28;20490;-36
2022/02/01 10:34:54;;;;;;;4.50;2.13;;;8.00;99.90;;;;;;5029506;28;20602;-33
2022/02/01 10:37:22;;;;;;;10.13;2.37;;;8.00;99.90;;;;;;5007872;28;20075;-32
2022/02/01 10:40:02;;;;;;;14.18;4.57;;;8.00;99.90;;;;;;4996097;28;20029;-36
2022/02/01 10:42:28;;;;;;;15.40;4.40;;;8.00;99.90;;;;;;5015671;28;20022;-35
2022/02/01 10:44:56;;;;;;;17.27;4.05;;;8.10;99.90;;;;;;5014792;28;20108;-31
2022/02/01 10:47:31;;;;;;;;;;;8.10;99.90;;;;;;5005250;28;20045;-34
2022/02/01 10:50:07;;;;;;;14.85;3.70;;;8.20;99.90;;;;;;5015397;28;19909;-38
2022/02/01 10:52:39;;;;;;;12.18;3.13;;;8.30;99.90;;;;;;4997517;28;20026;-35
2022/02/01 10:55:09;;;;;;;11.55;2.55;;;8.20;99.90;;;;;;5007118;28;20548;-38
2022/02/01 10:57:35;;;;;;;8.25;3.47;;;8.20;99.90;;;;;;5015335;28;20033;-36
2022/02/01 11:00:01;;;;;;;7.97;2.72;;;8.20;99.90;;;;;;5014272;28;20172;-31
2022/02/01 11:02:29;;;;;;;10.07;3.28;;;8.30;99.90;;;;;;5010993;28;20530;-33
2022/02/01 11:04:57;;;;;;;;;;;8.30;99.90;;;;;;4996122;28;20026;-37
2022/02/01 11:07:23;;;;;;;14.68;3.35;;;8.30;99.90;;;;;;4995554;28;20366;-31
2022/02/01 11:09:49;;;;;;;16.95;3.60;;;8.30;99.90;;;;;;4995309;28;20023;-38
2022/02/01 11:12:15;;;;;;;23.80;4.13;;;8.30;99.90;;;;;;4996007;28;20057;-32
2022/02/01 11:14:43;;;;;;;18.52;4.05;;;8.30;99.90;;;;;;4995398;28;20395;-36
2022/02/01 11:17:16;;;;;;;;;;;8.30;99.90;;;;;;4996328;28;20030;-35
2022/02/01 11:19:50;;;;;;;8.80;3.35;;;8.30;99.90;;;;;;5005531;28;20516;-37
2022/02/01 11:22:30;;;;;;;19.92;4.22;;;8.30;99.90;;;;;;4999456;28;20034;-31
2022/02/01 11:24:59;;;;;;;23.10;3.55;;;8.30;99.90;;;;;;5011147;28;20506;-34
2022/02/01 11:27:37;;;;;;;23.20;4.72;;;8.30;99.90;;;;;;4995564;28;20372;-33
2022/02/01 11:30:13;;;;;;;;;;;8.30;99.90;;;;;;5006019;28;20019;-35
2022/02/01 11:32:47;;;;;;;14.50;3.67;;;8.30;99.90;;;;;;4995084;28;19905;-34
2022/02/01 11:35:16;;;;;;;16.63;4.18;;;8.30;99.90;;;;;;4995058;28;20109;-36
2022/02/01 11:38:09;;;;;;;20.02;4.85;;;8.30;99.90;;;;;;4994835;28;20057;-34
2022/02/01 11:40:46;;;;;;;23.35;3.72;;;8.30;99.90;;;;;;4994302;28;20038;-39
2022/02/01 11:43:13;;;;;;;22.37;2.33;;;8.30;99.90;;;;;;5003242;28;20426;-36
2022/02/01 11:45:53;;;;;;;15.52;3.50;;;8.40;99.90;;;;;;5027301;28;20288;-33
2022/02/01 11:48:26;;;;;;;15.02;3.60;;;8.40;99.90;;;;;;4994642;28;20101;-33
2022/02/01 11:51:14;;;;;;;23.63;3.55;;;8.40;99.90;;;;;;5007490;28;20030;-34
2022/02/01 11:53:42;;;;;;;14.50;3.95;;;8.40;99.90;;;;;;5024568;28;20049;-32
2022/02/01 11:56:10;;;;;;;13.07;3.50;;;8.50;99.90;;;;;;5012034;28;20125;-37
2022/02/01 11:58:37;;;;;;;;;;;8.50;99.90;;;;;;5012760;28;20034;-34
2022/02/01 12:01:28;;;;;;;25.85;4.03;;;8.50;99.90;;;;;;5011063;28;19910;-31
2022/02/01 12:04:17;;;;;;;18.30;3.80;;;8.60;99.90;;;;;;4996522;28;20042;-33
2022/02/01 12:07:05;;;;;;;25.70;4.82;;;8.60;99.90;;;;;;5004878;28;20473;-36
2022/02/01 12:09:31;;;;;;;10.95;2.97;;;8.60;99.90;;;;;;5011542;28;20113;-33
2022/02/01 12:12:00;;;;;;;10.90;3.50;;;8.60;99.90;;;;;;5004583;28;20113;-34
2022/02/01 12:14:27;;;;;;;17.70;4.28;;;8.70;99.90;;;;;;4994276;28;20427;-38
2022/02/01 12:16:54;;;;;;;14.32;3.05;;;8.70;99.90;;;;;;5000837;28;20105;-31
2022/02/01 12:19:51;;;;;;;13.52;2.78;;;8.80;99.90;;;;;;5002620;28;20467;-33
2022/02/01 12:22:31;;;;;;;19.30;3.83;;;8.80;99.90;;;;;;4993796;28;20398;-31
2022/02/01 12:25:02;;;;;;;16.63;3.38;;;8.90;99.90;;;;;;5000250;28;20022;-34
2022/02/01 12:27:39;;;;;;;11.00;2.53;;;9.00;99.90;;;;;;5013723;28;20390;-39
2022/02/01 12:30:08;;;;;;;13.05;2.97;;;9.00;99.90;;;;;;5013435;28;20117;-37
2022/02/01 12:32:34;;;;;;;11.38;3.03;;;9.00;99.90;;;;;;5013639;28;20034;-33
2022/02/01 12:35:00;;;;;;;17.55;4.00;;;9.10;99.90;;;;;;5005753;28;20026;-32
2022/02/01 12:37:27;;;;;;;9.93;2.60;;;9.10;99.90;;;;;;4993834;28;20502;-30
2022/02/01 12:40:04;;;;;;;18.58;3.63;;;9.20;99.90;;;;;;4993861;28;20023;-35
2022/02/01 12:42:43;;;;;;;14.32;2.95;;;9.10;99.90;;;;;;5008045;28;20075;-35
2022/02/01 12:48:00;;;;;;;11.15;2.72;;;9.20;99.90;;;;;;4996345;28;20467;-35
2022/02/01 12:50:26;;;;;;;10.65;2.08;;;9.20;99.90;;;;;;5013355;28;20511;-38
2022/02/01 12:53:01;;;;;;;9.10;2.95;;;9.30;99.90;;;;;;5013291;28;20034;-33
2022/02/01 12:55:27;;;;;;;5.65;1.88;;;9.40;99.90;;;;;;5011505;28;20037;-31
2022/02/01 12:57:54;;;;;;;14.10;2.03;;;9.50;99.90;;;;;;5011975;28;20029;-37
2022/02/01 13:00:24;;;;;;;9.13;1.53;;;9.50;99.90;;;;;;5013150;28;20097;-33
2022/02/01 13:02:55;;;;;;;12.10;2.30;;;9.50;99.90;;;;;;5001290;28;20072;-37
2022/02/01 13:05:21;;;;;;;6.93;2.47;;;9.50;99.90;;;;;;5012874;28;20018;-29
2022/02/01 13:21:17;;;;;;;11.68;2.72;;;9.60;99.90;;;;;;5013249;28;20172;-34
2022/02/01 13:23:46;;;;;;;9.50;2.58;;;9.50;99.90;;;;;;5011845;28;20479;-33
2022/02/01 13:26:12;;;;;;;5.45;1.85;;;9.50;99.90;;;;;;4993662;28;20026;-32
2022/02/01 13:28:42;;;;;;;5.72;1.75;;;9.50;99.90;;;;;;5002246;28;20474;-33
2022/02/01 13:31:14;;;;;;;6.78;2.25;;;9.60;99.90;;;;;;4991977;28;20022;-32
2022/02/01 13:33:51;;;;;;;5.82;2.63;;;9.60;99.90;;;;;;4993645;28;20042;-31
2022/02/01 13:36:18;;;;;;;7.60;1.85;;;9.60;99.90;;;;;;5008640;28;20030;-32
2022/02/01 13:38:55;;;;;;;6.25;1.67;;;9.70;99.90;;;;;;4993084;28;20031;-34
2022/02/01 13:41:23;;;;;;;14.33;2.33;;;9.70;99.90;;;;;;5001807;28;20116;-39
2022/02/01 13:43:52;;;;;;;8.55;2.15;;;9.70;99.90;;;;;;5010755;28;20665;-34
2022/02/01 13:46:20;;;;;;;9.45;1.88;;;9.60;99.90;;;;;;5010676;28;20086;-34
2022/02/01 13:48:56;;;;;;;7.88;1.50;;;9.60;99.90;;;;;;5006907;28;20026;-35
2022/02/01 13:51:22;;;;;;;14.07;2.72;;;9.70;99.90;;;;;;5009501;28;20022;-32
2022/02/01 13:53:59;;;;;;;6.78;2.35;;;9.70;99.90;;;;;;5010698;28;20109;-33
2022/02/01 13:56:28;;;;;;;8.60;2.00;;;9.60;99.90;;;;;;5005701;28;20367;-31
2022/02/01 13:59:08;;;;;;;10.35;2.20;;;9.60;99.90;;;;;;5007740;28;20382;-32
2022/02/01 14:01:44;;;;;;;10.32;4.40;;;9.60;99.90;;;;;;5010879;28;20026;-31
2022/02/01 14:04:19;;;;;;;11.70;2.20;;;9.60;99.90;;;;;;5008144;28;20030;-30
2022/02/01 14:13:22;;;;;;;12.20;1.95;;;9.60;99.90;;;;;;5014898;28;20437;-35
2022/02/01 14:33:32;;;;;;;17.40;3.15;;;9.70;99.90;;;;;;5014235;28;20553;-34
2022/02/01 14:35:58;;;;;;;5.90;1.20;;;9.70;99.90;;;;;;5013056;28;20076;-32
2022/02/01 14:46:17;;;;;;;18.13;2.53;;;9.70;99.90;;;;;;5004751;28;20045;-32
2022/02/01 14:48:43;;;;;;;12.85;2.97;;;9.60;99.90;;;;;;5004094;28;20471;-58
2022/02/01 14:51:09;;;;;;;14.93;2.70;;;9.70;99.90;;;;;;5008595;28;20110;-32
2022/02/01 14:53:35;;;;;;;14.15;1.98;;;9.70;99.90;;;;;;4997078;28;20387;-31
2022/02/01 14:56:19;;;;;;;9.02;2.22;;;9.70;99.90;;;;;;5005360;28;20036;-31
2022/02/01 15:14:42;;;;;;;14.10;1.95;;;9.60;99.90;;;;;;5012997;28;20037;-34
2022/02/01 15:17:10;;;;;;;13.40;2.60;;;9.60;99.90;;;;;;5001518;28;20025;-33
2022/02/01 15:19:36;;;;;;;10.52;2.30;;;9.60;99.90;;;;;;5012411;28;20033;-41
2022/02/01 15:22:01;;;;;;;17.15;2.42;;;9.60;99.90;;;;;;5009614;28;20022;-33
2022/02/01 15:24:27;;;;;;;25.02;3.55;;;9.60;99.90;;;;;;5012361;28;20037;-31
2022/02/01 15:26:52;;;;;;;11.30;1.67;;;9.60;99.90;;;;;;5012213;28;20080;-32
2022/02/01 15:29:18;;;;;;;13.10;2.20;;;9.60;99.90;;;;;;5003176;28;20479;-30
2022/02/01 15:31:43;;;;;;;19.92;2.65;;;9.60;99.90;;;;;;5007776;28;20033;-35
2022/02/01 15:34:09;;;;;;;12.15;1.88;;;9.60;99.90;;;;;;5003889;28;20034;-35
2022/02/01 15:36:36;;;;;;;21.88;2.00;;;9.60;99.90;;;;;;5010166;28;20675;-33